createdAt,value
2018-02-09T00:00:18.384Z,76.90
2018-02-09T00:00:52.251Z,66.53
2018-02-09T00:01:26.250Z,68.45
2018-02-09T00:02:00.125Z,62.20
2018-02-09T00:02:34.000Z,69.90
2018-02-09T00:03:08.029Z,71.75
2018-02-09T00:03:41.904Z,70.20
2018-02-09T00:04:15.769Z,77.70
2018-02-09T00:04:49.720Z,66.65
2018-02-09T00:05:23.588Z,68.97
2018-02-09T00:05:57.829Z,71.35
2018-02-09T00:06:31.688Z,68.80
2018-02-09T00:07:05.576Z,75.15
2018-02-09T00:07:39.430Z,68.70
2018-02-09T00:08:13.306Z,70.93
2018-02-09T00:08:47.180Z,71.25
2018-02-09T00:09:21.034Z,66.60
2018-02-09T00:09:54.892Z,69.47
2018-02-09T00:10:28.741Z,77.75
2018-02-09T00:11:02.677Z,72.40
2018-02-09T00:11:36.557Z,72.18
2018-02-09T00:12:10.412Z,73.53
2018-02-09T00:12:44.345Z,74.15
2018-02-09T00:13:18.235Z,71.97
2018-02-09T00:13:52.154Z,68.03
2018-02-09T00:14:26.016Z,73.87
2018-02-09T00:14:59.885Z,76.50
2018-02-09T00:15:34.132Z,80.30
2018-02-09T00:16:08.137Z,65.00
2018-02-09T00:16:42.114Z,79.60
2018-02-09T00:17:16.125Z,72.22
2018-02-09T00:17:50.048Z,71.28
2018-02-09T00:18:23.935Z,67.47
2018-02-09T00:18:57.799Z,71.85
2018-02-09T00:19:31.805Z,80.65
2018-02-09T00:20:05.668Z,72.05
2018-02-09T00:20:39.532Z,73.32
2018-02-09T00:21:13.390Z,74.75
2018-02-09T00:21:47.589Z,75.12
2018-02-09T00:22:21.450Z,76.80
2018-02-09T00:22:55.487Z,74.95
2018-02-09T00:23:29.414Z,73.20
2018-02-09T00:24:03.298Z,78.00
2018-02-09T00:24:37.150Z,70.22
2018-02-09T00:25:11.168Z,69.43
2018-02-09T00:25:45.064Z,73.60
2018-02-09T00:26:18.918Z,70.10
2018-02-09T00:26:52.877Z,65.15
2018-02-09T00:27:26.741Z,73.30
2018-02-09T00:28:00.635Z,60.25
2018-02-09T00:28:34.572Z,82.22
2018-02-09T00:29:08.549Z,71.18
2018-02-09T00:29:42.401Z,71.97
2018-02-09T00:30:16.337Z,67.50
2018-02-09T00:30:50.212Z,67.93
2018-02-09T00:31:24.129Z,73.35
2018-02-09T00:31:58.019Z,71.87
2018-02-09T00:32:32.017Z,72.53
2018-02-09T00:33:05.867Z,72.10
2018-02-09T00:33:39.734Z,69.78
2018-02-09T00:34:13.600Z,72.20
2018-02-09T00:34:47.597Z,71.97
2018-02-09T00:35:21.592Z,66.80
2018-02-09T00:35:55.459Z,76.12
2018-02-09T00:36:29.312Z,78.80
2018-02-09T00:37:03.301Z,67.80
2018-02-09T00:37:37.173Z,69.47
2018-02-09T00:38:11.037Z,69.65
2018-02-09T00:38:44.916Z,70.30
2018-02-09T00:41:59.884Z,79.25
2018-02-09T00:42:33.891Z,73.50
2018-02-09T00:43:08.035Z,73.00
2018-02-09T00:43:41.903Z,68.57
2018-02-09T00:44:15.838Z,75.85
2018-02-09T00:44:49.722Z,75.45
2018-02-09T00:45:23.716Z,68.80
2018-02-09T00:45:57.581Z,70.10
2018-02-09T00:46:31.624Z,68.68
2018-02-09T00:47:05.488Z,78.82
2018-02-09T00:47:39.340Z,69.37
2018-02-09T00:48:13.189Z,67.28
2018-02-09T00:48:47.094Z,71.68
2018-02-09T00:49:21.097Z,71.30
2018-02-09T00:49:54.972Z,71.65
2018-02-09T00:50:28.825Z,71.85
2018-02-09T00:51:02.980Z,66.93
2018-02-09T00:51:36.837Z,72.35
2018-02-09T00:52:10.685Z,70.47
2018-02-09T00:52:44.973Z,68.82
2018-02-09T00:53:18.868Z,72.68
2018-02-09T00:53:52.764Z,68.20
2018-02-09T00:54:26.966Z,64.70
2018-02-09T00:55:00.956Z,70.20
2018-02-09T00:55:34.966Z,64.65
2018-02-09T00:56:08.826Z,66.00
2018-02-09T00:56:42.688Z,64.75
2018-02-09T00:57:16.644Z,68.00
2018-02-09T00:57:50.499Z,66.05
2018-02-09T00:58:24.361Z,68.55
2018-02-09T00:58:58.223Z,62.97
2018-02-09T00:59:32.105Z,66.75
2018-02-09T01:00:05.970Z,63.95
2018-02-09T01:00:39.848Z,75.47
2018-02-09T01:01:13.709Z,62.85
2018-02-09T01:01:47.924Z,66.68
2018-02-09T01:02:21.841Z,74.82
2018-02-09T01:02:55.702Z,73.55
2018-02-09T01:03:29.698Z,66.53
2018-02-09T01:04:03.545Z,67.47
2018-02-09T01:04:37.637Z,59.40
2018-02-09T01:05:11.614Z,67.65
2018-02-09T01:05:45.489Z,74.95
2018-02-09T01:06:19.402Z,64.68
2018-02-09T01:06:53.381Z,69.30
2018-02-09T01:07:27.232Z,65.40
2018-02-09T01:08:01.286Z,68.47
2018-02-09T01:08:35.142Z,71.37
2018-02-09T01:09:09.027Z,76.30
2018-02-09T01:09:42.896Z,69.53
2018-02-09T01:10:16.759Z,67.15
2018-02-09T01:10:50.608Z,67.40
2018-02-09T01:11:24.604Z,68.82
2018-02-09T01:11:58.460Z,62.22
2018-02-09T01:12:32.318Z,74.03
2018-02-09T01:13:06.355Z,73.45
2018-02-09T01:13:40.345Z,68.57
2018-02-09T01:14:14.204Z,73.45
2018-02-09T01:14:48.071Z,71.43
2018-02-09T01:15:22.018Z,64.03
2018-02-09T01:15:55.882Z,77.62
2018-02-09T01:16:29.754Z,68.85
2018-02-09T01:17:03.608Z,72.07
2018-02-09T01:17:37.589Z,73.47
2018-02-09T01:18:12.264Z,62.42
2018-02-09T01:18:46.111Z,74.05
2018-02-09T01:19:19.971Z,73.75
2018-02-09T01:19:54.008Z,72.97
2018-02-09T01:20:27.864Z,68.53
2018-02-09T01:21:01.911Z,66.05
2018-02-09T01:21:35.772Z,72.28
2018-02-09T01:22:09.646Z,69.60
2018-02-09T01:22:43.500Z,70.03
2018-02-09T01:23:17.380Z,70.87
2018-02-09T01:23:51.236Z,68.75
2018-02-09T01:24:25.477Z,70.87
2018-02-09T01:24:59.353Z,68.45
2018-02-09T01:25:33.225Z,69.60
2018-02-09T01:26:07.076Z,73.62
2018-02-09T01:26:41.165Z,68.97
2018-02-09T01:27:15.027Z,68.47
2018-02-09T01:27:48.951Z,72.60
2018-02-09T01:28:22.817Z,69.22
2018-02-09T01:28:56.669Z,70.80
2018-02-09T01:29:30.558Z,73.12
2018-02-09T01:30:04.620Z,72.95
2018-02-09T01:30:38.478Z,68.10
2018-02-09T01:31:12.341Z,70.05
2018-02-09T01:31:46.207Z,67.30
2018-02-09T01:32:20.108Z,65.20
2018-02-09T01:32:53.968Z,67.62
2018-02-09T01:33:27.832Z,66.97
2018-02-09T01:34:01.897Z,68.05
2018-02-09T01:34:36.548Z,72.75
2018-02-09T01:35:10.421Z,66.90
2018-02-09T01:35:44.273Z,71.87
2018-02-09T01:36:18.292Z,77.20
2018-02-09T01:36:52.186Z,69.85
2018-02-09T01:37:26.189Z,67.87
2018-02-09T01:38:00.042Z,65.62
2018-02-09T01:38:33.907Z,73.57
2018-02-09T01:39:07.768Z,74.00
2018-02-09T01:39:41.621Z,67.15
2018-02-09T01:40:15.508Z,63.17
2018-02-09T01:40:49.402Z,73.25
2018-02-09T01:41:23.450Z,64.45
2018-02-09T01:41:57.301Z,62.67
2018-02-09T01:42:31.444Z,66.07
2018-02-09T01:43:05.309Z,62.53
2018-02-09T01:43:39.178Z,67.15
2018-02-09T01:44:13.081Z,66.45
2018-02-09T01:44:47.128Z,74.20
2018-02-09T01:45:21.149Z,67.25
2018-02-09T01:45:55.012Z,75.10
2018-02-09T01:46:29.021Z,64.12
2018-02-09T01:47:02.887Z,64.75
2018-02-09T01:47:37.014Z,74.95
2018-02-09T01:48:10.927Z,72.45
2018-02-09T01:48:44.776Z,70.10
2018-02-09T01:49:18.639Z,68.78
2018-02-09T01:49:58.260Z,64.05
2018-02-09T01:50:32.460Z,65.78
2018-02-09T01:51:06.443Z,63.83
2018-02-09T01:51:40.292Z,69.95
2018-02-09T01:52:14.327Z,71.40
2018-02-09T01:52:48.201Z,63.55
2018-02-09T01:53:22.229Z,67.47
2018-02-09T01:53:56.093Z,66.43
2018-02-09T01:54:30.160Z,73.22
2018-02-09T01:55:04.021Z,61.58
2018-02-09T01:55:37.895Z,69.47
2018-02-09T01:56:11.760Z,66.55
2018-02-09T01:56:45.613Z,73.10
2018-02-09T01:57:19.464Z,61.22
2018-02-09T01:57:53.355Z,68.10
2018-02-09T01:58:27.288Z,65.25
2018-02-09T01:59:01.167Z,67.78
2018-02-09T01:59:35.021Z,75.40
2018-02-09T02:00:09.160Z,67.78
2018-02-09T02:00:43.162Z,70.62
2018-02-09T02:01:17.159Z,64.95
2018-02-09T02:01:51.012Z,73.80
2018-02-09T02:02:24.873Z,70.10
2018-02-09T02:02:58.870Z,71.95
2018-02-09T02:03:32.733Z,68.05
2018-02-09T02:04:06.637Z,66.55
2018-02-09T02:04:40.481Z,61.17
2018-02-09T02:05:14.336Z,64.72
2018-02-09T02:05:48.209Z,58.58
2018-02-09T02:06:22.363Z,71.80
2018-02-09T02:06:56.231Z,65.37
2018-02-09T02:07:30.084Z,66.35
2018-02-09T02:08:03.957Z,65.00
2018-02-09T02:08:37.816Z,66.03
2018-02-09T02:09:11.797Z,62.17
2018-02-09T02:09:45.658Z,78.43
2018-02-09T02:10:19.516Z,65.75
2018-02-09T02:10:53.499Z,60.00
2018-02-09T02:11:27.361Z,72.53
2018-02-09T02:12:01.219Z,70.37
2018-02-09T02:12:35.218Z,70.53
2018-02-09T02:13:09.110Z,67.07
2018-02-09T02:13:42.974Z,61.45
2018-02-09T02:14:16.953Z,70.97
2018-02-09T02:14:50.950Z,61.60
2018-02-09T02:15:24.827Z,65.68
2018-02-09T02:15:58.914Z,69.60
2018-02-09T02:16:32.763Z,65.43
2018-02-09T02:17:06.736Z,62.92
2018-02-09T02:17:40.613Z,66.20
2018-02-09T02:18:14.684Z,61.08
2018-02-09T02:18:48.549Z,68.70
2018-02-09T02:19:22.540Z,67.35
2018-02-09T02:19:56.396Z,62.72
2018-02-09T02:20:30.314Z,70.87
2018-02-09T02:21:04.721Z,73.03
2018-02-09T02:21:38.575Z,60.78
2018-02-09T02:22:12.429Z,63.10
2018-02-09T02:22:46.288Z,62.00
2018-02-09T02:23:20.145Z,68.50
2018-02-09T02:23:53.996Z,61.78
2018-02-09T02:24:27.855Z,67.75
2018-02-09T02:25:01.708Z,67.00
2018-02-09T02:25:35.809Z,67.65
2018-02-09T02:26:09.680Z,65.15
2018-02-09T02:26:43.687Z,63.60
2018-02-09T02:27:17.544Z,58.90
2018-02-09T02:27:51.478Z,69.95
2018-02-09T02:28:25.336Z,67.90
2018-02-09T02:28:59.205Z,68.10
2018-02-09T02:29:33.175Z,69.20
2018-02-09T02:30:07.029Z,72.65
2018-02-09T02:30:40.890Z,65.47
2018-02-09T02:31:15.042Z,72.75
2018-02-09T02:31:48.902Z,73.85
2018-02-09T02:32:22.797Z,63.20
2018-02-09T02:32:56.661Z,73.62
2018-02-09T02:33:30.521Z,66.30
2018-02-09T02:34:04.378Z,70.80
2018-02-09T02:34:38.312Z,66.57
2018-02-09T02:35:12.165Z,64.30
2018-02-09T02:35:46.238Z,63.72
2018-02-09T02:36:20.122Z,69.82
2018-02-09T02:36:54.004Z,63.05
2018-02-09T02:37:27.905Z,60.92
2018-02-09T02:38:01.766Z,70.68
2018-02-09T02:38:35.619Z,61.90
2018-02-09T02:39:09.486Z,70.47
2018-02-09T02:39:43.365Z,66.90
2018-02-09T02:40:17.232Z,67.30
2018-02-09T02:40:51.269Z,67.47
2018-02-09T02:41:25.158Z,63.40
2018-02-09T02:41:59.162Z,69.35
2018-02-09T02:42:33.032Z,64.60
2018-02-09T02:43:06.895Z,63.42
2018-02-09T02:43:41.050Z,63.10
2018-02-09T02:44:14.945Z,64.93
2018-02-09T02:44:48.802Z,63.78
2018-02-09T02:45:22.658Z,67.57
2018-02-09T02:45:56.515Z,67.40
2018-02-09T02:46:30.367Z,66.35
2018-02-09T02:47:04.229Z,63.35
2018-02-09T02:47:38.094Z,69.93
2018-02-09T02:48:11.949Z,57.75
2018-02-09T02:48:47.450Z,63.38
2018-02-09T02:49:21.304Z,58.15
2018-02-09T02:49:55.189Z,65.95
2018-02-09T02:50:29.115Z,65.25
2018-02-09T02:51:03.016Z,66.62
2018-02-09T02:51:36.910Z,75.90
2018-02-09T02:52:10.775Z,62.40
2018-02-09T02:52:44.701Z,71.78
2018-02-09T02:53:18.698Z,73.32
2018-02-09T02:53:52.706Z,64.45
2018-02-09T02:54:26.696Z,68.60
2018-02-09T02:55:00.547Z,63.67
2018-02-09T02:55:34.397Z,65.90
2018-02-09T02:56:08.489Z,69.57
2018-02-09T02:56:42.597Z,76.03
2018-02-09T02:57:16.453Z,62.53
2018-02-09T02:57:50.341Z,68.07
2018-02-09T02:58:24.374Z,70.40
2018-02-09T02:58:58.240Z,73.25
2018-02-09T02:59:32.107Z,68.50
2018-02-09T03:00:05.979Z,68.07
2018-02-09T03:00:39.857Z,65.80
2018-02-09T03:01:13.712Z,62.80
2018-02-09T03:01:47.747Z,65.90
2018-02-09T03:02:21.638Z,75.30
2018-02-09T03:02:55.520Z,75.50
2018-02-09T03:03:29.384Z,73.40
2018-02-09T03:04:03.247Z,69.45
2018-02-09T03:04:37.108Z,63.95
2018-02-09T03:05:11.217Z,74.25
2018-02-09T03:05:45.229Z,64.97
2018-02-09T03:06:19.217Z,64.20
2018-02-09T03:06:53.098Z,71.78
2018-02-09T03:07:26.958Z,66.40
2018-02-09T03:08:00.814Z,66.78
2018-02-09T03:08:34.668Z,70.68
2018-02-09T03:09:08.535Z,71.65
2018-02-09T03:09:42.392Z,72.43
2018-02-09T03:10:16.253Z,68.43
2018-02-09T03:10:50.116Z,72.12
2018-02-09T03:11:24.010Z,72.18
2018-02-09T03:11:57.872Z,64.10
2018-02-09T03:12:31.721Z,68.50
2018-02-09T03:13:05.590Z,63.53
2018-02-09T03:13:39.463Z,62.92
2018-02-09T03:14:13.348Z,72.53
2018-02-09T03:14:47.197Z,73.43
2018-02-09T03:15:21.278Z,67.05
2018-02-09T03:15:55.181Z,67.07
2018-02-09T03:16:29.036Z,69.57
2018-02-09T03:17:03.023Z,67.75
2018-02-09T03:17:37.040Z,67.70
2018-02-09T03:18:10.901Z,68.55
2018-02-09T03:18:44.869Z,79.43
2018-02-09T03:19:18.741Z,65.47
2018-02-09T03:19:52.804Z,67.20
2018-02-09T03:20:26.673Z,65.12
2018-02-09T03:21:00.578Z,73.32
2018-02-09T03:21:34.449Z,66.57
2018-02-09T03:22:08.496Z,72.07
2018-02-09T03:22:42.341Z,67.10
2018-02-09T03:23:16.223Z,65.78
2018-02-09T03:23:50.084Z,64.12
2018-02-09T03:24:23.947Z,64.93
2018-02-09T03:24:57.812Z,71.15
2018-02-09T03:25:31.660Z,69.35
2018-02-09T03:26:05.549Z,72.40
2018-02-09T03:26:39.459Z,71.22
2018-02-09T03:27:13.357Z,68.20
2018-02-09T03:27:47.222Z,67.53
2018-02-09T03:28:21.244Z,64.72
2018-02-09T03:28:55.109Z,69.15
2018-02-09T03:29:29.036Z,74.97
2018-02-09T03:30:02.952Z,68.00
2018-02-09T03:30:36.831Z,74.25
2018-02-09T03:31:10.808Z,71.30
2018-02-09T03:31:44.680Z,74.30
2018-02-09T03:32:18.727Z,70.62
2018-02-09T03:32:52.588Z,71.05
2018-02-09T03:33:26.597Z,71.62
2018-02-09T03:34:00.456Z,65.22
2018-02-09T03:34:34.481Z,67.57
2018-02-09T03:35:08.344Z,71.32
2018-02-09T03:35:42.193Z,71.15
2018-02-09T03:36:16.064Z,64.22
2018-02-09T03:36:49.940Z,67.07
2018-02-09T03:37:23.798Z,65.18
2018-02-09T03:37:57.856Z,61.03
2018-02-09T03:38:31.718Z,68.22
2018-02-09T03:39:05.589Z,67.15
2018-02-09T03:39:39.590Z,66.32
2018-02-09T03:40:13.649Z,66.97
2018-02-09T03:40:47.500Z,70.10
2018-02-09T03:41:21.368Z,66.32
2018-02-09T03:41:55.549Z,64.68
2018-02-09T03:42:29.417Z,62.22
2018-02-09T03:43:03.327Z,72.80
2018-02-09T03:43:37.340Z,66.47
2018-02-09T03:44:11.206Z,68.97
2018-02-09T03:44:45.321Z,69.75
2018-02-09T03:45:19.181Z,67.75
2018-02-09T03:45:53.120Z,68.43
2018-02-09T03:46:26.983Z,74.32
2018-02-09T03:47:01.230Z,69.10
2018-02-09T03:47:35.133Z,61.10
2018-02-09T03:48:08.996Z,74.65
2018-02-09T03:48:42.845Z,70.07
2018-02-09T03:49:16.800Z,62.67
2018-02-09T03:49:50.657Z,65.62
2018-02-09T03:50:24.682Z,70.85
2018-02-09T03:50:58.541Z,69.87
2018-02-09T03:51:32.448Z,62.80
2018-02-09T03:52:06.781Z,66.93
2018-02-09T03:52:40.672Z,70.32
2018-02-09T03:53:14.563Z,76.03
2018-02-09T03:53:48.424Z,65.65
2018-02-09T03:54:22.277Z,69.12
2018-02-09T03:54:56.244Z,64.00
2018-02-09T03:55:30.254Z,72.40
2018-02-09T03:56:04.334Z,61.53
2018-02-09T03:56:38.466Z,71.20
2018-02-09T03:57:12.322Z,68.10
2018-02-09T03:57:46.211Z,68.55
2018-02-09T03:58:20.098Z,69.05
2018-02-09T03:58:54.079Z,74.03
2018-02-09T03:59:27.944Z,76.93
2018-02-09T04:00:01.925Z,72.45
2018-02-09T04:00:35.824Z,73.87
2018-02-09T04:01:09.824Z,70.70
2018-02-09T04:01:43.696Z,69.95
2018-02-09T04:02:17.626Z,62.13
2018-02-09T04:02:51.529Z,69.07
2018-02-09T04:03:25.519Z,65.93
2018-02-09T04:03:59.405Z,67.72
2018-02-09T04:04:33.284Z,68.93
2018-02-09T04:05:07.191Z,69.20
2018-02-09T04:05:41.196Z,64.70
2018-02-09T04:06:15.393Z,70.90
2018-02-09T04:06:49.694Z,74.55
2018-02-09T04:07:23.541Z,59.90
2018-02-09T04:07:57.413Z,64.80
2018-02-09T04:08:31.273Z,65.00
2018-02-09T04:09:05.168Z,66.00
2018-02-09T04:09:39.069Z,77.45
2018-02-09T04:10:12.970Z,71.55
2018-02-09T04:10:46.831Z,66.65
2018-02-09T04:11:20.705Z,68.07
2018-02-09T04:11:54.561Z,59.13
2018-02-09T04:12:28.448Z,67.95
2018-02-09T04:13:02.457Z,73.05
2018-02-09T04:13:36.322Z,62.60
2018-02-09T04:14:10.207Z,64.72
2018-02-09T04:14:44.071Z,71.22
2018-02-09T04:15:17.941Z,70.30
2018-02-09T04:15:51.811Z,71.85
2018-02-09T04:16:25.684Z,64.57
2018-02-09T04:16:59.539Z,72.75
2018-02-09T04:17:33.404Z,73.68
2018-02-09T04:18:07.302Z,70.03
2018-02-09T04:18:41.319Z,76.05
2018-02-09T04:19:15.301Z,68.10
2018-02-09T04:19:49.202Z,66.68
2018-02-09T04:20:23.494Z,70.22
2018-02-09T04:20:57.361Z,80.70
2018-02-09T04:21:31.233Z,70.20
2018-02-09T04:22:05.097Z,74.37
2018-02-09T04:22:38.954Z,80.90
2018-02-09T04:23:12.994Z,69.07
2018-02-09T04:23:46.849Z,69.47
2018-02-09T04:24:20.716Z,68.90
2018-02-09T04:24:54.582Z,65.20
2018-02-09T04:25:28.799Z,69.65
2018-02-09T04:26:02.657Z,67.60
2018-02-09T04:26:36.856Z,72.60
2018-02-09T04:27:10.725Z,66.20
2018-02-09T04:27:44.604Z,71.80
2018-02-09T04:28:18.655Z,76.53
2018-02-09T04:28:52.512Z,72.18
2018-02-09T04:29:26.552Z,69.37
2018-02-09T04:30:00.440Z,77.03
2018-02-09T04:30:34.325Z,64.78
2018-02-09T04:31:08.194Z,77.95
2018-02-09T04:31:42.069Z,75.53
2018-02-09T04:32:15.924Z,67.25
2018-02-09T04:32:49.797Z,64.22
2018-02-09T04:33:23.670Z,73.68
2018-02-09T04:33:57.637Z,65.32
2018-02-09T04:34:31.484Z,76.68
2018-02-09T04:35:05.493Z,69.65
2018-02-09T04:35:39.383Z,61.60
2018-02-09T04:36:13.269Z,76.93
2018-02-09T04:36:47.122Z,77.62
2018-02-09T04:37:21.027Z,67.65
2018-02-09T04:37:54.856Z,67.47
2018-02-09T04:38:28.973Z,68.80
2018-02-09T04:39:02.893Z,73.87
2018-02-09T04:39:36.761Z,72.97
2018-02-09T04:40:10.611Z,72.60
2018-02-09T04:40:44.545Z,66.35
2018-02-09T04:41:18.406Z,70.95
2018-02-09T04:41:52.417Z,71.30
2018-02-09T04:42:26.296Z,76.45
2018-02-09T04:43:00.188Z,72.03
2018-02-09T04:43:34.145Z,78.65
2018-02-09T04:44:08.006Z,72.70
2018-02-09T04:44:42.020Z,74.15
2018-02-09T04:45:16.009Z,70.87
2018-02-09T04:45:49.875Z,75.00
2018-02-09T04:46:23.745Z,80.45
2018-02-09T04:46:57.617Z,67.78
2018-02-09T04:47:31.530Z,69.10
2018-02-09T04:48:05.488Z,72.95
2018-02-09T04:48:39.423Z,65.78
2018-02-09T04:49:13.513Z,75.90
2018-02-09T04:49:47.376Z,73.85
2018-02-09T04:50:21.239Z,61.95
2018-02-09T04:50:55.088Z,69.50
2018-02-09T04:51:28.957Z,71.80
2018-02-09T04:52:03.061Z,75.32
2018-02-09T04:52:37.385Z,68.30
2018-02-09T04:53:11.248Z,67.40
2018-02-09T04:53:45.136Z,73.55
2018-02-09T04:54:18.984Z,78.90
2018-02-09T04:54:52.841Z,69.32
2018-02-09T04:55:26.709Z,69.78
2018-02-09T04:56:00.639Z,67.82
2018-02-09T04:56:34.499Z,77.05
2018-02-09T04:57:08.461Z,66.37
2018-02-09T04:57:42.333Z,75.03
2018-02-09T04:58:16.185Z,63.60
2018-02-09T04:58:50.265Z,71.87
2018-02-09T04:59:24.116Z,69.03
2018-02-09T04:59:58.104Z,67.35
2018-02-09T05:00:31.964Z,73.00
2018-02-09T05:01:05.839Z,68.43
2018-02-09T05:01:39.715Z,68.40
2018-02-09T05:02:13.644Z,72.90
2018-02-09T05:02:47.554Z,71.90
2018-02-09T05:03:21.689Z,69.00
2018-02-09T05:03:55.563Z,74.43
2018-02-09T05:04:29.425Z,70.22
2018-02-09T05:05:03.382Z,68.22
2018-02-09T05:05:37.249Z,81.90
2018-02-09T05:06:11.270Z,67.65
2018-02-09T05:06:45.139Z,75.45
2018-02-09T05:07:19.022Z,65.65
2018-02-09T05:07:52.881Z,66.95
2018-02-09T05:08:26.734Z,70.55
2018-02-09T05:09:01.147Z,70.03
2018-02-09T05:09:35.247Z,71.55
2018-02-09T05:10:09.111Z,71.35
2018-02-09T05:10:43.162Z,76.97
2018-02-09T05:11:17.039Z,66.30
2018-02-09T05:11:50.900Z,69.40
2018-02-09T05:12:24.802Z,84.13
2018-02-09T05:12:58.662Z,70.85
2018-02-09T05:13:32.525Z,73.05
2018-02-09T05:14:06.520Z,70.50
2018-02-09T05:14:40.405Z,72.68
2018-02-09T05:15:14.412Z,73.25
2018-02-09T05:15:48.301Z,64.90
2018-02-09T05:16:22.157Z,74.62
2018-02-09T05:16:56.104Z,67.43
2018-02-09T05:17:29.999Z,66.82
2018-02-09T05:18:03.880Z,65.35
2018-02-09T05:18:37.884Z,63.60
2018-02-09T05:19:11.882Z,72.75
2018-02-09T05:19:45.879Z,71.20
2018-02-09T05:20:20.093Z,67.87
2018-02-09T05:20:53.957Z,75.65
2018-02-09T05:21:27.816Z,75.70
2018-02-09T05:22:01.764Z,82.28
2018-02-09T05:22:35.620Z,72.47
2018-02-09T05:23:09.473Z,71.22
2018-02-09T05:23:43.344Z,79.00
2018-02-09T05:24:17.375Z,74.53
2018-02-09T05:24:51.244Z,74.60
2018-02-09T05:25:25.107Z,63.25
2018-02-09T05:25:59.260Z,72.75
2018-02-09T05:26:33.243Z,70.80
2018-02-09T05:27:07.123Z,75.18
2018-02-09T05:27:41.029Z,76.95
2018-02-09T05:28:14.890Z,75.32
2018-02-09T05:28:48.921Z,79.25
2018-02-09T05:29:22.922Z,72.57
2018-02-09T05:29:56.781Z,71.25
2018-02-09T05:30:30.646Z,71.72
2018-02-09T05:31:04.499Z,68.43
2018-02-09T05:31:38.494Z,70.57
2018-02-09T05:32:12.513Z,89.72
2018-02-09T05:32:46.592Z,86.15
2018-02-09T05:33:20.713Z,68.28
2018-02-09T05:33:54.696Z,73.95
2018-02-09T05:34:28.573Z,71.05
2018-02-09T05:35:02.430Z,73.15
2018-02-09T05:35:36.292Z,74.18
2018-02-09T05:36:10.478Z,75.97
2018-02-09T05:36:44.396Z,73.53
2018-02-09T05:37:18.244Z,69.05
2018-02-09T05:37:52.111Z,74.82
2018-02-09T05:38:25.971Z,79.43
2018-02-09T05:38:59.845Z,74.87
2018-02-09T05:39:33.731Z,74.37
2018-02-09T05:40:07.641Z,80.20
2018-02-09T05:40:41.646Z,77.22
2018-02-09T05:41:15.876Z,80.60
2018-02-09T05:41:49.833Z,70.35
2018-02-09T05:42:23.698Z,78.97
2018-02-09T05:42:57.836Z,72.87
2018-02-09T05:43:31.921Z,68.22
2018-02-09T05:44:05.791Z,79.10
2018-02-09T05:44:39.690Z,77.32
2018-02-09T05:45:13.555Z,73.18
2018-02-09T05:45:47.550Z,72.40
2018-02-09T05:46:21.417Z,82.50
2018-02-09T05:46:55.416Z,80.10
2018-02-09T05:47:29.289Z,86.30
2018-02-09T05:48:03.160Z,89.80
2018-02-09T05:48:37.015Z,78.05
2018-02-09T05:49:11.400Z,85.85
2018-02-09T05:49:45.277Z,81.63
2018-02-09T05:50:19.146Z,86.70
2018-02-09T05:50:53.009Z,69.45
2018-02-09T05:51:26.864Z,73.22
2018-02-09T05:52:01.075Z,79.93
2018-02-09T05:52:35.206Z,83.90
2018-02-09T05:53:09.091Z,89.78
2018-02-09T05:53:42.948Z,92.85
2018-02-09T05:54:17.037Z,89.60
2018-02-09T05:54:50.928Z,82.85
2018-02-09T05:55:24.861Z,88.30
2018-02-09T05:55:58.725Z,84.55
2018-02-09T05:56:32.755Z,88.45
2018-02-09T05:57:06.624Z,86.03
2018-02-09T05:57:40.650Z,79.18
2018-02-09T05:58:14.531Z,82.05
2018-02-09T05:58:48.560Z,90.87
2018-02-09T05:59:22.425Z,85.30
2018-02-09T05:59:56.296Z,83.18
2018-02-09T06:00:30.161Z,91.80
2018-02-09T06:01:04.436Z,88.57
2018-02-09T06:01:38.535Z,96.90
2018-02-09T06:02:12.408Z,88.40
2018-02-09T06:02:46.271Z,83.62
2018-02-09T06:03:20.125Z,85.25
2018-02-09T06:03:54.038Z,88.05
2018-02-09T06:04:28.088Z,85.82
2018-02-09T06:05:01.970Z,84.28
2018-02-09T06:05:35.840Z,87.20
2018-02-09T06:06:09.698Z,96.00
2018-02-09T06:06:43.692Z,90.32
2018-02-09T06:07:17.695Z,93.20
2018-02-09T06:07:52.404Z,87.93
2018-02-09T06:08:26.277Z,86.40
2018-02-09T06:09:00.189Z,95.32
2018-02-09T06:09:34.045Z,92.47
2018-02-09T06:10:08.026Z,103.32
2018-02-09T06:10:41.881Z,93.37
2018-02-09T06:11:15.754Z,96.72
2018-02-09T06:11:49.883Z,96.05
2018-02-09T06:12:23.788Z,86.15
2018-02-09T06:12:57.865Z,106.10
2018-02-09T06:13:31.738Z,90.50
2018-02-09T06:14:05.649Z,95.05
2018-02-09T06:14:39.506Z,97.72
2018-02-09T06:15:13.473Z,89.85
2018-02-09T06:15:47.458Z,92.60
2018-02-09T06:16:21.338Z,95.40
2018-02-09T06:16:55.348Z,89.15
2018-02-09T06:17:29.457Z,92.15
2018-02-09T06:18:03.344Z,87.55
2018-02-09T06:18:37.209Z,95.28
2018-02-09T06:19:11.331Z,99.80
2018-02-09T06:19:45.345Z,96.30
2018-02-09T06:20:19.212Z,87.12
2018-02-09T06:20:53.363Z,96.47
2018-02-09T06:21:27.323Z,86.28
2018-02-09T06:22:01.218Z,90.18
2018-02-09T06:22:35.262Z,96.72
2018-02-09T06:23:09.206Z,96.05
2018-02-09T06:23:43.069Z,91.85
2018-02-09T06:24:16.938Z,89.28
2018-02-09T06:24:51.008Z,99.03
2018-02-09T06:25:24.891Z,95.95
2018-02-09T06:25:58.756Z,92.18
2018-02-09T06:26:32.611Z,101.53
2018-02-09T06:27:06.465Z,95.87
2018-02-09T06:27:40.320Z,90.72
2018-02-09T06:28:14.475Z,94.82
2018-02-09T06:28:48.338Z,97.28
2018-02-09T06:29:22.207Z,98.82
2018-02-09T06:29:56.578Z,84.25
2018-02-09T06:30:30.465Z,92.50
2018-02-09T06:31:04.316Z,95.47
2018-02-09T06:31:38.274Z,98.53
2018-02-09T06:32:12.134Z,106.80
2018-02-09T06:32:46.002Z,96.15
2018-02-09T06:33:19.874Z,96.03
2018-02-09T06:33:53.839Z,98.90
2018-02-09T06:34:27.699Z,108.53
2018-02-09T06:35:01.615Z,92.37
2018-02-09T06:35:35.639Z,103.07
2018-02-09T06:36:09.553Z,105.43
2018-02-09T06:36:43.624Z,109.05
2018-02-09T06:37:17.501Z,101.90
2018-02-09T06:37:51.532Z,107.15
2018-02-09T06:38:25.394Z,100.82
2018-02-09T06:38:59.261Z,103.47
2018-02-09T06:39:33.212Z,107.35
2018-02-09T06:40:07.060Z,108.43
2018-02-09T06:40:41.338Z,108.57
2018-02-09T06:41:15.400Z,98.37
2018-02-09T06:41:49.509Z,118.55
2018-02-09T06:42:23.413Z,101.03
2018-02-09T06:42:57.343Z,108.65
2018-02-09T06:43:31.257Z,102.15
2018-02-09T06:44:05.182Z,105.60
2018-02-09T06:44:39.590Z,101.90
2018-02-09T06:45:13.441Z,102.43
2018-02-09T06:45:47.515Z,101.18
2018-02-09T06:46:21.480Z,97.53
2018-02-09T06:46:55.333Z,108.35
2018-02-09T06:47:29.784Z,104.30
2018-02-09T06:48:03.711Z,114.57
2018-02-09T06:48:37.582Z,108.37
2018-02-09T06:49:11.457Z,105.35
2018-02-09T06:49:45.315Z,116.82
2018-02-09T06:50:19.201Z,113.85
2018-02-09T06:50:53.096Z,115.20
2018-02-09T06:51:27.079Z,109.28
2018-02-09T06:52:00.954Z,102.78
2018-02-09T06:52:35.237Z,108.32
2018-02-09T06:53:09.648Z,102.72
2018-02-09T06:53:43.657Z,107.03
2018-02-09T06:54:17.536Z,102.70
2018-02-09T06:54:51.513Z,104.28
2018-02-09T06:55:25.647Z,108.95
2018-02-09T06:55:59.783Z,100.65
2018-02-09T06:56:33.671Z,104.85
2018-02-09T06:57:07.541Z,105.65
2018-02-09T06:57:57.172Z,106.63
2018-02-09T06:58:31.043Z,108.70
2018-02-09T06:59:05.010Z,103.15
2018-02-09T06:59:38.934Z,105.07
2018-02-09T07:00:12.989Z,100.32
2018-02-09T07:00:47.817Z,99.03
2018-02-09T07:01:21.680Z,98.15
2018-02-09T07:01:55.599Z,106.68
2018-02-09T07:02:29.460Z,102.82
2018-02-09T07:03:03.390Z,106.75
2018-02-09T07:03:37.252Z,103.03
2018-02-09T07:04:11.597Z,108.65
2018-02-09T07:04:45.495Z,102.78
2018-02-09T07:05:19.413Z,103.55
2018-02-09T07:05:53.260Z,103.18
2018-02-09T07:06:27.304Z,102.65
2018-02-09T07:07:01.297Z,109.55
2018-02-09T07:07:35.357Z,100.70
2018-02-09T07:08:09.232Z,106.60
2018-02-09T07:08:43.094Z,103.97
2018-02-09T07:09:16.982Z,107.03
2018-02-09T07:09:51.084Z,103.20
2018-02-09T07:10:25.072Z,105.47
2018-02-09T07:10:58.935Z,106.20
2018-02-09T07:11:32.806Z,102.75
2018-02-09T07:12:06.680Z,103.35
2018-02-09T07:12:40.532Z,94.45
2018-02-09T07:13:14.416Z,109.65
2018-02-09T07:13:48.321Z,115.35
2018-02-09T07:14:22.268Z,107.18
2018-02-09T07:14:56.340Z,105.03
2018-02-09T07:15:30.521Z,108.93
2018-02-09T07:16:04.523Z,102.60
2018-02-09T07:16:38.524Z,101.65
2018-02-09T07:17:12.397Z,97.60
2018-02-09T07:17:46.264Z,103.65
2018-02-09T07:18:20.247Z,103.30
2018-02-09T07:18:54.108Z,102.25